< < Back
Terminal Aerodrome Forecast


Current Version              Previous Versions:   1  2  3  4  5  6  7  8  9  

Terminal Aerodrome Forecast

471
FTUS42 KGSP 230500
TAFAVL
TAF
KAVL 230521Z 2306/2406 VRB03KT P6SM BKN045
      TEMPO 2309/2312 SCT010 BKN035
     FM231400 35004KT P6SM SCT040 BKN120
     FM240100 VRB03KT P6SM FEW050 SCT120=

Latest METAR

991
SAUS70 KWBC 231400 RRP
MTRAVL
METAR KAVL 231354Z VRB03KT 10SM CLR 14/09 A3032 RMK AO2 SLP256
T01440094


USA.gov is the U.S. government's official web portal to all federal, state and local government web resources and services.